sensor_id;sensor_type;location;lat;lon;timestamp;P1;durP1;ratioP1;P2;durP2;ratioP2
14736;SDS011;7459;53.590;10.062;2023-06-10T00:01:51;9.68;;;2.53;;
14736;SDS011;7459;53.590;10.062;2023-06-10T00:04:20;7.63;;;2.28;;
14736;SDS011;7459;53.590;10.062;2023-06-10T00:06:47;10.50;;;3.00;;
14736;SDS011;7459;53.590;10.062;2023-06-10T00:09:14;6.03;;;2.40;;
14736;SDS011;7459;53.590;10.062;2023-06-10T00:11:40;9.75;;;2.28;;
14736;SDS011;7459;53.590;10.062;2023-06-10T00:14:07;9.15;;;2.17;;
14736;SDS011;7459;53.590;10.062;2023-06-10T00:16:33;8.50;;;2.05;;
14736;SDS011;7459;53.590;10.062;2023-06-10T00:19:00;8.00;;;2.55;;
14736;SDS011;7459;53.590;10.062;2023-06-10T00:21:29;8.40;;;2.10;;
14736;SDS011;7459;53.590;10.062;2023-06-10T00:24:03;9.48;;;2.47;;
14736;SDS011;7459;53.590;10.062;2023-06-10T00:26:30;7.90;;;2.53;;
14736;SDS011;7459;53.590;10.062;2023-06-10T00:28:57;8.95;;;3.05;;
14736;SDS011;7459;53.590;10.062;2023-06-10T00:31:23;10.90;;;2.50;;
14736;SDS011;7459;53.590;10.062;2023-06-10T00:33:48;7.15;;;2.05;;
14736;SDS011;7459;53.590;10.062;2023-06-10T00:36:14;7.10;;;2.63;;
14736;SDS011;7459;53.590;10.062;2023-06-10T00:38:40;6.88;;;2.20;;
14736;SDS011;7459;53.590;10.062;2023-06-10T00:41:06;8.33;;;2.77;;
14736;SDS011;7459;53.590;10.062;2023-06-10T00:43:32;10.63;;;2.70;;
14736;SDS011;7459;53.590;10.062;2023-06-10T00:45:58;10.25;;;2.35;;
14736;SDS011;7459;53.590;10.062;2023-06-10T00:48:24;7.57;;;2.47;;
14736;SDS011;7459;53.590;10.062;2023-06-10T00:50:51;8.85;;;2.33;;
14736;SDS011;7459;53.590;10.062;2023-06-10T00:53:17;9.73;;;2.85;;
14736;SDS011;7459;53.590;10.062;2023-06-10T00:55:43;10.32;;;2.13;;
14736;SDS011;7459;53.590;10.062;2023-06-10T00:58:09;8.40;;;3.30;;
14736;SDS011;7459;53.590;10.062;2023-06-10T01:00:35;10.07;;;3.55;;
14736;SDS011;7459;53.590;10.062;2023-06-10T01:03:01;10.48;;;3.58;;
14736;SDS011;7459;53.590;10.062;2023-06-10T01:05:33;7.47;;;2.85;;
14736;SDS011;7459;53.590;10.062;2023-06-10T01:08:01;8.23;;;2.47;;
14736;SDS011;7459;53.590;10.062;2023-06-10T01:10:37;10.00;;;2.50;;
14736;SDS011;7459;53.590;10.062;2023-06-10T01:13:11;7.90;;;2.75;;
14736;SDS011;7459;53.590;10.062;2023-06-10T01:15:38;11.35;;;2.80;;
14736;SDS011;7459;53.590;10.062;2023-06-10T01:18:05;6.65;;;2.28;;
14736;SDS011;7459;53.590;10.062;2023-06-10T01:20:39;8.63;;;2.53;;
14736;SDS011;7459;53.590;10.062;2023-06-10T01:23:08;7.85;;;2.38;;
14736;SDS011;7459;53.590;10.062;2023-06-10T01:25:40;5.30;;;2.22;;
14736;SDS011;7459;53.590;10.062;2023-06-10T01:28:14;7.82;;;2.35;;
14736;SDS011;7459;53.590;10.062;2023-06-10T01:30:56;8.25;;;2.05;;
14736;SDS011;7459;53.590;10.062;2023-06-10T01:33:47;7.07;;;2.67;;
14736;SDS011;7459;53.590;10.062;2023-06-10T01:36:17;9.00;;;2.60;;
14736;SDS011;7459;53.590;10.062;2023-06-10T01:38:45;6.15;;;1.95;;
14736;SDS011;7459;53.590;10.062;2023-06-10T01:41:13;7.22;;;2.03;;
14736;SDS011;7459;53.590;10.062;2023-06-10T01:43:43;8.25;;;2.20;;
14736;SDS011;7459;53.590;10.062;2023-06-10T01:46:10;8.37;;;2.23;;
14736;SDS011;7459;53.590;10.062;2023-06-10T01:48:37;6.57;;;2.03;;
14736;SDS011;7459;53.590;10.062;2023-06-10T01:51:03;8.70;;;1.77;;
14736;SDS011;7459;53.590;10.062;2023-06-10T01:53:29;9.93;;;1.90;;
14736;SDS011;7459;53.590;10.062;2023-06-10T01:55:55;6.20;;;1.53;;
14736;SDS011;7459;53.590;10.062;2023-06-10T01:58:21;8.18;;;1.92;;
14736;SDS011;7459;53.590;10.062;2023-06-10T02:03:22;7.75;;;1.42;;
14736;SDS011;7459;53.590;10.062;2023-06-10T02:05:48;9.45;;;1.38;;
14736;SDS011;7459;53.590;10.062;2023-06-10T02:08:14;7.10;;;1.30;;
14736;SDS011;7459;53.590;10.062;2023-06-10T02:10:40;8.07;;;1.65;;
14736;SDS011;7459;53.590;10.062;2023-06-10T02:13:06;6.17;;;1.60;;
14736;SDS011;7459;53.590;10.062;2023-06-10T02:15:32;6.35;;;1.85;;
14736;SDS011;7459;53.590;10.062;2023-06-10T02:17:58;9.20;;;1.63;;
14736;SDS011;7459;53.590;10.062;2023-06-10T02:20:25;5.63;;;1.50;;
14736;SDS011;7459;53.590;10.062;2023-06-10T02:22:51;9.68;;;1.63;;
14736;SDS011;7459;53.590;10.062;2023-06-10T02:25:17;4.68;;;1.50;;
14736;SDS011;7459;53.590;10.062;2023-06-10T02:27:43;6.30;;;1.20;;
14736;SDS011;7459;53.590;10.062;2023-06-10T02:30:08;3.80;;;1.10;;
14736;SDS011;7459;53.590;10.062;2023-06-10T02:32:35;6.72;;;2.15;;
14736;SDS011;7459;53.590;10.062;2023-06-10T02:35:01;9.90;;;1.25;;
14736;SDS011;7459;53.590;10.062;2023-06-10T02:37:27;6.20;;;1.30;;
14736;SDS011;7459;53.590;10.062;2023-06-10T02:39:53;8.48;;;1.27;;
14736;SDS011;7459;53.590;10.062;2023-06-10T02:42:18;7.47;;;0.90;;
14736;SDS011;7459;53.590;10.062;2023-06-10T02:44:44;8.27;;;1.77;;
14736;SDS011;7459;53.590;10.062;2023-06-10T02:47:10;6.80;;;1.03;;
14736;SDS011;7459;53.590;10.062;2023-06-10T02:49:35;5.72;;;1.17;;
14736;SDS011;7459;53.590;10.062;2023-06-10T02:52:01;7.60;;;1.03;;
14736;SDS011;7459;53.590;10.062;2023-06-10T02:54:27;6.20;;;1.10;;
14736;SDS011;7459;53.590;10.062;2023-06-10T02:56:53;5.70;;;0.80;;
14736;SDS011;7459;53.590;10.062;2023-06-10T02:59:20;6.30;;;1.53;;
14736;SDS011;7459;53.590;10.062;2023-06-10T03:01:46;6.88;;;1.20;;
14736;SDS011;7459;53.590;10.062;2023-06-10T03:04:12;5.27;;;0.80;;
14736;SDS011;7459;53.590;10.062;2023-06-10T03:06:39;8.27;;;1.47;;
14736;SDS011;7459;53.590;10.062;2023-06-10T03:09:10;6.20;;;1.55;;
14736;SDS011;7459;53.590;10.062;2023-06-10T03:11:36;6.25;;;1.20;;
14736;SDS011;7459;53.590;10.062;2023-06-10T03:14:01;8.03;;;1.33;;
14736;SDS011;7459;53.590;10.062;2023-06-10T03:16:27;5.82;;;1.63;;
14736;SDS011;7459;53.590;10.062;2023-06-10T03:18:55;4.22;;;0.77;;
14736;SDS011;7459;53.590;10.062;2023-06-10T03:21:21;6.40;;;1.50;;
14736;SDS011;7459;53.590;10.062;2023-06-10T03:23:47;4.35;;;1.10;;
14736;SDS011;7459;53.590;10.062;2023-06-10T03:26:12;7.22;;;1.27;;
14736;SDS011;7459;53.590;10.062;2023-06-10T03:28:40;7.07;;;0.90;;
14736;SDS011;7459;53.590;10.062;2023-06-10T03:31:06;6.75;;;1.00;;
14736;SDS011;7459;53.590;10.062;2023-06-10T03:33:32;9.32;;;1.00;;
14736;SDS011;7459;53.590;10.062;2023-06-10T03:35:58;6.23;;;1.13;;
14736;SDS011;7459;53.590;10.062;2023-06-10T03:38:24;5.20;;;0.93;;
14736;SDS011;7459;53.590;10.062;2023-06-10T03:40:49;8.05;;;1.15;;
14736;SDS011;7459;53.590;10.062;2023-06-10T03:43:15;6.60;;;0.90;;
14736;SDS011;7459;53.590;10.062;2023-06-10T03:45:41;7.35;;;1.13;;
14736;SDS011;7459;53.590;10.062;2023-06-10T03:48:06;7.70;;;1.37;;
14736;SDS011;7459;53.590;10.062;2023-06-10T03:50:33;5.65;;;0.90;;
14736;SDS011;7459;53.590;10.062;2023-06-10T03:52:59;5.00;;;1.00;;
14736;SDS011;7459;53.590;10.062;2023-06-10T03:55:25;4.40;;;0.70;;
14736;SDS011;7459;53.590;10.062;2023-06-10T03:57:51;4.00;;;1.05;;
14736;SDS011;7459;53.590;10.062;2023-06-10T04:00:17;6.25;;;1.30;;
14736;SDS011;7459;53.590;10.062;2023-06-10T04:02:44;6.13;;;0.90;;
14736;SDS011;7459;53.590;10.062;2023-06-10T04:05:15;4.78;;;0.98;;
14736;SDS011;7459;53.590;10.062;2023-06-10T04:07:41;3.90;;;0.93;;
14736;SDS011;7459;53.590;10.062;2023-06-10T04:10:09;7.82;;;0.90;;
14736;SDS011;7459;53.590;10.062;2023-06-10T04:12:37;6.35;;;0.90;;
14736;SDS011;7459;53.590;10.062;2023-06-10T04:15:03;5.30;;;0.90;;
14736;SDS011;7459;53.590;10.062;2023-06-10T04:17:29;6.00;;;0.90;;
14736;SDS011;7459;53.590;10.062;2023-06-10T04:19:55;6.18;;;1.15;;
14736;SDS011;7459;53.590;10.062;2023-06-10T04:22:22;6.97;;;1.00;;
14736;SDS011;7459;53.590;10.062;2023-06-10T04:24:49;7.27;;;1.40;;
14736;SDS011;7459;53.590;10.062;2023-06-10T04:27:15;3.58;;;0.60;;
14736;SDS011;7459;53.590;10.062;2023-06-10T04:29:41;5.85;;;0.77;;
14736;SDS011;7459;53.590;10.062;2023-06-10T04:32:06;4.47;;;0.80;;
14736;SDS011;7459;53.590;10.062;2023-06-10T04:34:33;5.70;;;0.73;;
14736;SDS011;7459;53.590;10.062;2023-06-10T04:36:59;5.97;;;0.75;;
14736;SDS011;7459;53.590;10.062;2023-06-10T04:39:25;7.07;;;0.93;;
14736;SDS011;7459;53.590;10.062;2023-06-10T04:41:51;4.75;;;0.70;;
14736;SDS011;7459;53.590;10.062;2023-06-10T04:44:16;7.28;;;0.88;;
14736;SDS011;7459;53.590;10.062;2023-06-10T04:46:43;7.57;;;1.13;;
14736;SDS011;7459;53.590;10.062;2023-06-10T04:49:09;5.93;;;0.80;;
14736;SDS011;7459;53.590;10.062;2023-06-10T04:51:35;5.05;;;0.98;;
14736;SDS011;7459;53.590;10.062;2023-06-10T04:54:01;7.97;;;0.80;;
14736;SDS011;7459;53.590;10.062;2023-06-10T04:56:28;5.95;;;1.02;;
14736;SDS011;7459;53.590;10.062;2023-06-10T04:58:55;4.40;;;0.80;;
14736;SDS011;7459;53.590;10.062;2023-06-10T05:01:22;9.20;;;1.10;;
14736;SDS011;7459;53.590;10.062;2023-06-10T05:03:48;5.90;;;1.03;;
14736;SDS011;7459;53.590;10.062;2023-06-10T05:06:14;4.38;;;1.00;;
14736;SDS011;7459;53.590;10.062;2023-06-10T05:08:39;4.50;;;0.98;;
14736;SDS011;7459;53.590;10.062;2023-06-10T05:11:05;9.87;;;1.10;;
14736;SDS011;7459;53.590;10.062;2023-06-10T05:13:31;5.35;;;1.10;;
14736;SDS011;7459;53.590;10.062;2023-06-10T05:15:57;4.85;;;0.90;;
14736;SDS011;7459;53.590;10.062;2023-06-10T05:18:23;7.23;;;1.10;;
14736;SDS011;7459;53.590;10.062;2023-06-10T05:20:49;7.88;;;1.05;;
14736;SDS011;7459;53.590;10.062;2023-06-10T05:23:14;5.80;;;0.90;;
14736;SDS011;7459;53.590;10.062;2023-06-10T05:25:40;3.87;;;0.77;;
14736;SDS011;7459;53.590;10.062;2023-06-10T05:28:07;4.70;;;0.57;;
14736;SDS011;7459;53.590;10.062;2023-06-10T05:30:36;5.53;;;0.57;;
14736;SDS011;7459;53.590;10.062;2023-06-10T05:33:02;8.63;;;0.90;;
14736;SDS011;7459;53.590;10.062;2023-06-10T05:35:29;8.93;;;0.80;;
14736;SDS011;7459;53.590;10.062;2023-06-10T05:37:55;8.95;;;1.25;;
14736;SDS011;7459;53.590;10.062;2023-06-10T05:40:20;5.77;;;1.00;;
14736;SDS011;7459;53.590;10.062;2023-06-10T05:42:46;5.80;;;0.90;;
14736;SDS011;7459;53.590;10.062;2023-06-10T05:45:12;6.83;;;0.90;;
14736;SDS011;7459;53.590;10.062;2023-06-10T05:47:37;5.88;;;0.90;;
14736;SDS011;7459;53.590;10.062;2023-06-10T05:50:05;4.40;;;0.70;;
14736;SDS011;7459;53.590;10.062;2023-06-10T05:52:32;4.23;;;0.50;;
14736;SDS011;7459;53.590;10.062;2023-06-10T05:54:59;5.65;;;0.70;;
14736;SDS011;7459;53.590;10.062;2023-06-10T05:57:25;5.53;;;0.63;;
14736;SDS011;7459;53.590;10.062;2023-06-10T05:59:51;4.77;;;1.00;;
14736;SDS011;7459;53.590;10.062;2023-06-10T06:02:16;4.57;;;0.70;;
14736;SDS011;7459;53.590;10.062;2023-06-10T06:04:42;7.13;;;1.23;;
14736;SDS011;7459;53.590;10.062;2023-06-10T06:07:08;5.70;;;0.73;;
14736;SDS011;7459;53.590;10.062;2023-06-10T06:09:33;6.80;;;0.80;;
14736;SDS011;7459;53.590;10.062;2023-06-10T06:11:59;9.25;;;1.10;;
14736;SDS011;7459;53.590;10.062;2023-06-10T06:14:25;7.45;;;0.93;;
14736;SDS011;7459;53.590;10.062;2023-06-10T06:16:51;4.30;;;0.93;;
14736;SDS011;7459;53.590;10.062;2023-06-10T06:19:16;5.10;;;0.80;;
14736;SDS011;7459;53.590;10.062;2023-06-10T06:21:42;5.20;;;0.70;;
14736;SDS011;7459;53.590;10.062;2023-06-10T06:24:08;8.27;;;0.85;;
14736;SDS011;7459;53.590;10.062;2023-06-10T06:26:33;17.93;;;1.83;;
14736;SDS011;7459;53.590;10.062;2023-06-10T06:28:59;10.20;;;1.17;;
14736;SDS011;7459;53.590;10.062;2023-06-10T06:31:25;6.07;;;0.70;;
14736;SDS011;7459;53.590;10.062;2023-06-10T06:33:50;4.70;;;0.65;;
14736;SDS011;7459;53.590;10.062;2023-06-10T06:36:16;6.73;;;1.53;;
14736;SDS011;7459;53.590;10.062;2023-06-10T06:38:42;8.77;;;1.05;;
14736;SDS011;7459;53.590;10.062;2023-06-10T06:41:07;5.77;;;0.87;;
14736;SDS011;7459;53.590;10.062;2023-06-10T06:43:33;7.05;;;0.93;;
14736;SDS011;7459;53.590;10.062;2023-06-10T06:45:59;4.10;;;0.77;;
14736;SDS011;7459;53.590;10.062;2023-06-10T06:48:25;10.88;;;2.03;;
14736;SDS011;7459;53.590;10.062;2023-06-10T06:50:50;8.57;;;1.00;;
14736;SDS011;7459;53.590;10.062;2023-06-10T06:53:16;6.38;;;1.23;;
14736;SDS011;7459;53.590;10.062;2023-06-10T06:55:42;6.60;;;1.33;;
14736;SDS011;7459;53.590;10.062;2023-06-10T06:58:07;5.75;;;0.90;;
14736;SDS011;7459;53.590;10.062;2023-06-10T07:00:33;11.83;;;2.30;;
14736;SDS011;7459;53.590;10.062;2023-06-10T07:02:59;9.40;;;2.03;;
14736;SDS011;7459;53.590;10.062;2023-06-10T07:05:25;10.15;;;2.33;;
14736;SDS011;7459;53.590;10.062;2023-06-10T07:07:55;9.30;;;2.40;;
14736;SDS011;7459;53.590;10.062;2023-06-10T07:10:24;7.20;;;1.45;;
14736;SDS011;7459;53.590;10.062;2023-06-10T07:12:51;7.13;;;2.13;;
14736;SDS011;7459;53.590;10.062;2023-06-10T07:15:17;9.13;;;1.67;;
14736;SDS011;7459;53.590;10.062;2023-06-10T07:17:43;6.47;;;1.67;;
14736;SDS011;7459;53.590;10.062;2023-06-10T07:20:09;8.32;;;1.52;;
14736;SDS011;7459;53.590;10.062;2023-06-10T07:22:35;10.55;;;1.67;;
14736;SDS011;7459;53.590;10.062;2023-06-10T07:25:01;6.40;;;1.20;;
14736;SDS011;7459;53.590;10.062;2023-06-10T07:27:27;7.18;;;1.77;;
14736;SDS011;7459;53.590;10.062;2023-06-10T07:29:52;5.03;;;1.30;;
14736;SDS011;7459;53.590;10.062;2023-06-10T07:32:19;7.87;;;1.90;;
14736;SDS011;7459;53.590;10.062;2023-06-10T07:34:48;9.13;;;1.05;;
14736;SDS011;7459;53.590;10.062;2023-06-10T07:37:15;6.93;;;1.30;;
14736;SDS011;7459;53.590;10.062;2023-06-10T07:39:41;7.77;;;1.20;;
14736;SDS011;7459;53.590;10.062;2023-06-10T07:42:08;8.95;;;1.38;;
14736;SDS011;7459;53.590;10.062;2023-06-10T07:44:33;11.77;;;1.83;;
14736;SDS011;7459;53.590;10.062;2023-06-10T07:46:59;7.07;;;1.97;;
14736;SDS011;7459;53.590;10.062;2023-06-10T07:49:25;6.88;;;2.40;;
14736;SDS011;7459;53.590;10.062;2023-06-10T07:51:53;9.97;;;3.23;;
14736;SDS011;7459;53.590;10.062;2023-06-10T07:54:22;10.20;;;2.17;;
14736;SDS011;7459;53.590;10.062;2023-06-10T07:56:48;8.10;;;2.13;;
14736;SDS011;7459;53.590;10.062;2023-06-10T07:59:16;9.65;;;1.95;;
14736;SDS011;7459;53.590;10.062;2023-06-10T08:01:42;6.77;;;2.33;;
14736;SDS011;7459;53.590;10.062;2023-06-10T08:04:07;6.90;;;1.52;;
14736;SDS011;7459;53.590;10.062;2023-06-10T08:06:33;7.95;;;1.67;;
14736;SDS011;7459;53.590;10.062;2023-06-10T08:08:59;14.27;;;1.63;;
14736;SDS011;7459;53.590;10.062;2023-06-10T08:11:25;6.78;;;1.83;;
14736;SDS011;7459;53.590;10.062;2023-06-10T08:13:53;9.27;;;3.17;;
14736;SDS011;7459;53.590;10.062;2023-06-10T08:16:19;5.10;;;1.55;;
14736;SDS011;7459;53.590;10.062;2023-06-10T08:18:45;11.77;;;1.93;;
14736;SDS011;7459;53.590;10.062;2023-06-10T08:21:10;7.37;;;2.90;;
14736;SDS011;7459;53.590;10.062;2023-06-10T08:23:36;10.87;;;2.87;;
14736;SDS011;7459;53.590;10.062;2023-06-10T08:26:02;11.80;;;3.90;;
14736;SDS011;7459;53.590;10.062;2023-06-10T08:28:27;8.60;;;2.60;;
14736;SDS011;7459;53.590;10.062;2023-06-10T08:30:53;8.35;;;2.22;;
14736;SDS011;7459;53.590;10.062;2023-06-10T08:33:19;13.53;;;2.90;;
14736;SDS011;7459;53.590;10.062;2023-06-10T08:35:44;7.40;;;1.83;;
14736;SDS011;7459;53.590;10.062;2023-06-10T08:38:10;8.90;;;1.80;;
14736;SDS011;7459;53.590;10.062;2023-06-10T08:40:36;9.27;;;2.03;;
14736;SDS011;7459;53.590;10.062;2023-06-10T08:43:06;7.00;;;1.58;;
14736;SDS011;7459;53.590;10.062;2023-06-10T08:45:34;6.27;;;2.53;;
14736;SDS011;7459;53.590;10.062;2023-06-10T08:48:04;6.07;;;2.03;;
14736;SDS011;7459;53.590;10.062;2023-06-10T08:50:34;9.77;;;2.13;;
14736;SDS011;7459;53.590;10.062;2023-06-10T08:53:04;9.73;;;2.33;;
14736;SDS011;7459;53.590;10.062;2023-06-10T08:55:32;9.80;;;2.50;;
14736;SDS011;7459;53.590;10.062;2023-06-10T08:58:03;8.10;;;2.30;;
14736;SDS011;7459;53.590;10.062;2023-06-10T09:00:29;6.72;;;2.15;;
14736;SDS011;7459;53.590;10.062;2023-06-10T09:02:56;10.30;;;1.92;;
14736;SDS011;7459;53.590;10.062;2023-06-10T09:05:23;7.93;;;1.90;;
14736;SDS011;7459;53.590;10.062;2023-06-10T09:07:51;9.00;;;1.90;;
14736;SDS011;7459;53.590;10.062;2023-06-10T09:10:17;9.05;;;2.10;;
14736;SDS011;7459;53.590;10.062;2023-06-10T09:12:43;8.48;;;2.08;;
14736;SDS011;7459;53.590;10.062;2023-06-10T09:15:09;7.50;;;1.70;;
14736;SDS011;7459;53.590;10.062;2023-06-10T09:17:37;7.57;;;1.50;;
14736;SDS011;7459;53.590;10.062;2023-06-10T09:20:05;8.43;;;1.92;;
14736;SDS011;7459;53.590;10.062;2023-06-10T09:22:33;7.00;;;1.80;;
14736;SDS011;7459;53.590;10.062;2023-06-10T09:25:02;8.40;;;2.30;;
14736;SDS011;7459;53.590;10.062;2023-06-10T09:30:32;9.18;;;1.95;;
14736;SDS011;7459;53.590;10.062;2023-06-10T09:33:00;8.52;;;2.70;;
14736;SDS011;7459;53.590;10.062;2023-06-10T09:35:29;11.70;;;4.25;;
14736;SDS011;7459;53.590;10.062;2023-06-10T09:37:57;9.23;;;2.30;;
14736;SDS011;7459;53.590;10.062;2023-06-10T09:40:24;17.73;;;2.47;;
14736;SDS011;7459;53.590;10.062;2023-06-10T09:42:54;10.40;;;2.33;;
14736;SDS011;7459;53.590;10.062;2023-06-10T09:45:27;11.43;;;2.72;;
14736;SDS011;7459;53.590;10.062;2023-06-10T09:47:56;10.95;;;2.38;;
14736;SDS011;7459;53.590;10.062;2023-06-10T09:50:22;9.80;;;2.83;;
14736;SDS011;7459;53.590;10.062;2023-06-10T09:52:47;8.60;;;2.40;;
14736;SDS011;7459;53.590;10.062;2023-06-10T09:55:13;7.53;;;2.03;;
14736;SDS011;7459;53.590;10.062;2023-06-10T09:57:39;9.50;;;2.05;;
14736;SDS011;7459;53.590;10.062;2023-06-10T10:00:10;6.50;;;2.40;;
14736;SDS011;7459;53.590;10.062;2023-06-10T10:02:43;10.35;;;1.92;;
14736;SDS011;7459;53.590;10.062;2023-06-10T10:05:18;9.18;;;2.60;;
14736;SDS011;7459;53.590;10.062;2023-06-10T10:07:49;8.47;;;2.10;;
14736;SDS011;7459;53.590;10.062;2023-06-10T10:10:16;8.48;;;2.10;;
14736;SDS011;7459;53.590;10.062;2023-06-10T10:12:44;9.18;;;1.98;;
14736;SDS011;7459;53.590;10.062;2023-06-10T10:15:17;8.93;;;2.28;;
14736;SDS011;7459;53.590;10.062;2023-06-10T10:20:35;10.67;;;2.13;;
14736;SDS011;7459;53.590;10.062;2023-06-10T10:23:10;6.50;;;2.08;;
14736;SDS011;7459;53.590;10.062;2023-06-10T10:25:45;10.82;;;3.20;;
14736;SDS011;7459;53.590;10.062;2023-06-10T10:28:17;7.53;;;2.55;;
14736;SDS011;7459;53.590;10.062;2023-06-10T10:30:49;14.15;;;2.72;;
14736;SDS011;7459;53.590;10.062;2023-06-10T10:33:42;10.70;;;2.33;;
14736;SDS011;7459;53.590;10.062;2023-06-10T10:36:27;9.32;;;2.13;;
14736;SDS011;7459;53.590;10.062;2023-06-10T10:38:54;8.13;;;2.75;;
14736;SDS011;7459;53.590;10.062;2023-06-10T10:41:21;10.02;;;2.88;;
14736;SDS011;7459;53.590;10.062;2023-06-10T10:43:49;5.93;;;1.93;;
14736;SDS011;7459;53.590;10.062;2023-06-10T10:46:16;11.40;;;3.05;;
14736;SDS011;7459;53.590;10.062;2023-06-10T10:48:43;6.15;;;1.70;;
14736;SDS011;7459;53.590;10.062;2023-06-10T10:51:10;10.90;;;2.40;;
14736;SDS011;7459;53.590;10.062;2023-06-10T10:53:36;13.80;;;2.85;;
14736;SDS011;7459;53.590;10.062;2023-06-10T10:56:16;9.60;;;2.17;;
14736;SDS011;7459;53.590;10.062;2023-06-10T10:59:04;7.18;;;2.38;;
14736;SDS011;7459;53.590;10.062;2023-06-10T11:01:43;8.35;;;2.47;;
14736;SDS011;7459;53.590;10.062;2023-06-10T11:04:11;8.98;;;1.95;;
14736;SDS011;7459;53.590;10.062;2023-06-10T11:06:37;10.30;;;2.55;;
14736;SDS011;7459;53.590;10.062;2023-06-10T11:11:53;9.65;;;2.08;;
14736;SDS011;7459;53.590;10.062;2023-06-10T11:14:27;9.63;;;2.83;;
14736;SDS011;7459;53.590;10.062;2023-06-10T11:16:56;9.23;;;2.63;;
14736;SDS011;7459;53.590;10.062;2023-06-10T11:19:33;9.20;;;2.53;;
14736;SDS011;7459;53.590;10.062;2023-06-10T11:22:05;12.40;;;2.72;;
14736;SDS011;7459;53.590;10.062;2023-06-10T11:24:32;5.60;;;2.38;;
14736;SDS011;7459;53.590;10.062;2023-06-10T11:27:32;9.15;;;2.13;;
14736;SDS011;7459;53.590;10.062;2023-06-10T11:32:29;8.38;;;2.40;;
14736;SDS011;7459;53.590;10.062;2023-06-10T11:34:57;17.45;;;2.60;;
14736;SDS011;7459;53.590;10.062;2023-06-10T11:37:23;6.35;;;2.30;;
14736;SDS011;7459;53.590;10.062;2023-06-10T11:39:55;10.60;;;2.25;;
14736;SDS011;7459;53.590;10.062;2023-06-10T11:42:21;10.90;;;3.00;;
14736;SDS011;7459;53.590;10.062;2023-06-10T11:44:48;8.85;;;2.90;;
14736;SDS011;7459;53.590;10.062;2023-06-10T11:47:18;7.80;;;2.85;;
14736;SDS011;7459;53.590;10.062;2023-06-10T11:49:45;7.85;;;2.53;;
14736;SDS011;7459;53.590;10.062;2023-06-10T11:52:27;9.43;;;2.60;;
14736;SDS011;7459;53.590;10.062;2023-06-10T11:54:58;10.90;;;3.10;;
14736;SDS011;7459;53.590;10.062;2023-06-10T11:57:24;11.27;;;2.60;;
14736;SDS011;7459;53.590;10.062;2023-06-10T11:59:50;8.68;;;3.15;;
14736;SDS011;7459;53.590;10.062;2023-06-10T12:02:16;8.43;;;2.80;;
14736;SDS011;7459;53.590;10.062;2023-06-10T12:04:42;8.48;;;3.35;;
14736;SDS011;7459;53.590;10.062;2023-06-10T12:07:08;7.13;;;2.73;;
14736;SDS011;7459;53.590;10.062;2023-06-10T12:09:42;6.70;;;2.37;;
14736;SDS011;7459;53.590;10.062;2023-06-10T12:12:08;8.32;;;2.45;;
14736;SDS011;7459;53.590;10.062;2023-06-10T12:14:52;13.98;;;2.83;;
14736;SDS011;7459;53.590;10.062;2023-06-10T12:17:23;11.57;;;2.63;;
14736;SDS011;7459;53.590;10.062;2023-06-10T12:19:56;11.23;;;3.00;;
14736;SDS011;7459;53.590;10.062;2023-06-10T12:22:21;11.68;;;3.33;;
14736;SDS011;7459;53.590;10.062;2023-06-10T12:25:04;8.85;;;3.05;;
14736;SDS011;7459;53.590;10.062;2023-06-10T12:27:32;10.67;;;2.80;;
14736;SDS011;7459;53.590;10.062;2023-06-10T12:29:59;8.43;;;2.90;;
14736;SDS011;7459;53.590;10.062;2023-06-10T12:32:39;10.43;;;3.90;;
14736;SDS011;7459;53.590;10.062;2023-06-10T12:35:10;8.68;;;3.35;;
14736;SDS011;7459;53.590;10.062;2023-06-10T12:37:38;10.30;;;3.30;;
14736;SDS011;7459;53.590;10.062;2023-06-10T12:40:07;9.80;;;3.07;;
14736;SDS011;7459;53.590;10.062;2023-06-10T12:42:33;11.55;;;3.25;;
14736;SDS011;7459;53.590;10.062;2023-06-10T12:45:02;8.30;;;3.67;;
14736;SDS011;7459;53.590;10.062;2023-06-10T12:47:38;8.82;;;3.65;;
14736;SDS011;7459;53.590;10.062;2023-06-10T12:50:05;7.60;;;3.63;;
14736;SDS011;7459;53.590;10.062;2023-06-10T12:52:32;14.53;;;3.27;;
14736;SDS011;7459;53.590;10.062;2023-06-10T12:54:58;9.75;;;3.25;;
14736;SDS011;7459;53.590;10.062;2023-06-10T12:57:25;8.57;;;3.97;;
14736;SDS011;7459;53.590;10.062;2023-06-10T12:59:51;13.10;;;3.30;;
14736;SDS011;7459;53.590;10.062;2023-06-10T13:02:25;7.17;;;3.30;;
14736;SDS011;7459;53.590;10.062;2023-06-10T13:04:51;8.15;;;3.50;;
14736;SDS011;7459;53.590;10.062;2023-06-10T13:07:16;6.33;;;3.43;;
14736;SDS011;7459;53.590;10.062;2023-06-10T13:09:43;8.73;;;3.63;;
14736;SDS011;7459;53.590;10.062;2023-06-10T13:12:09;9.95;;;3.50;;
14736;SDS011;7459;53.590;10.062;2023-06-10T13:14:35;8.18;;;2.78;;
14736;SDS011;7459;53.590;10.062;2023-06-10T13:17:05;11.15;;;2.75;;
14736;SDS011;7459;53.590;10.062;2023-06-10T13:19:31;8.02;;;2.75;;
14736;SDS011;7459;53.590;10.062;2023-06-10T13:22:00;8.90;;;2.90;;
14736;SDS011;7459;53.590;10.062;2023-06-10T13:24:26;10.65;;;2.97;;
14736;SDS011;7459;53.590;10.062;2023-06-10T13:26:52;9.40;;;3.10;;
14736;SDS011;7459;53.590;10.062;2023-06-10T13:29:19;11.98;;;3.30;;
14736;SDS011;7459;53.590;10.062;2023-06-10T13:31:45;11.67;;;2.70;;
14736;SDS011;7459;53.590;10.062;2023-06-10T13:34:11;9.38;;;2.92;;
14736;SDS011;7459;53.590;10.062;2023-06-10T13:36:36;10.37;;;2.00;;
14736;SDS011;7459;53.590;10.062;2023-06-10T13:39:02;12.82;;;3.00;;
14736;SDS011;7459;53.590;10.062;2023-06-10T13:41:28;9.77;;;2.40;;
14736;SDS011;7459;53.590;10.062;2023-06-10T13:43:54;9.20;;;2.47;;
14736;SDS011;7459;53.590;10.062;2023-06-10T13:46:20;11.52;;;2.30;;
14736;SDS011;7459;53.590;10.062;2023-06-10T13:48:51;9.70;;;2.40;;
14736;SDS011;7459;53.590;10.062;2023-06-10T13:51:17;10.77;;;2.38;;
14736;SDS011;7459;53.590;10.062;2023-06-10T13:53:42;8.43;;;2.27;;
14736;SDS011;7459;53.590;10.062;2023-06-10T13:56:08;9.93;;;2.03;;
14736;SDS011;7459;53.590;10.062;2023-06-10T13:58:34;10.83;;;2.00;;
14736;SDS011;7459;53.590;10.062;2023-06-10T14:01:04;10.02;;;2.67;;
14736;SDS011;7459;53.590;10.062;2023-06-10T14:03:30;11.77;;;2.45;;
14736;SDS011;7459;53.590;10.062;2023-06-10T14:05:55;11.63;;;2.20;;
14736;SDS011;7459;53.590;10.062;2023-06-10T14:08:21;11.20;;;2.50;;
14736;SDS011;7459;53.590;10.062;2023-06-10T14:10:47;10.88;;;2.30;;
14736;SDS011;7459;53.590;10.062;2023-06-10T14:13:13;13.13;;;2.93;;
14736;SDS011;7459;53.590;10.062;2023-06-10T14:15:38;8.90;;;2.42;;
14736;SDS011;7459;53.590;10.062;2023-06-10T14:18:04;9.70;;;1.87;;
14736;SDS011;7459;53.590;10.062;2023-06-10T14:20:30;9.60;;;4.15;;
14736;SDS011;7459;53.590;10.062;2023-06-10T14:22:56;10.10;;;2.45;;
14736;SDS011;7459;53.590;10.062;2023-06-10T14:25:23;8.47;;;1.73;;
14736;SDS011;7459;53.590;10.062;2023-06-10T14:27:49;8.32;;;2.10;;
14736;SDS011;7459;53.590;10.062;2023-06-10T14:30:15;9.00;;;2.35;;
14736;SDS011;7459;53.590;10.062;2023-06-10T14:32:41;10.03;;;2.30;;
14736;SDS011;7459;53.590;10.062;2023-06-10T14:35:07;13.48;;;2.22;;
14736;SDS011;7459;53.590;10.062;2023-06-10T14:37:33;10.18;;;2.55;;
14736;SDS011;7459;53.590;10.062;2023-06-10T14:39:59;9.37;;;2.43;;
14736;SDS011;7459;53.590;10.062;2023-06-10T14:42:25;7.57;;;2.00;;
14736;SDS011;7459;53.590;10.062;2023-06-10T14:44:50;9.90;;;2.23;;
14736;SDS011;7459;53.590;10.062;2023-06-10T14:47:16;7.80;;;2.10;;
14736;SDS011;7459;53.590;10.062;2023-06-10T14:49:42;9.07;;;2.27;;
14736;SDS011;7459;53.590;10.062;2023-06-10T14:52:08;8.77;;;2.27;;
14736;SDS011;7459;53.590;10.062;2023-06-10T14:54:35;7.90;;;2.97;;
14736;SDS011;7459;53.590;10.062;2023-06-10T14:57:00;12.95;;;2.40;;
14736;SDS011;7459;53.590;10.062;2023-06-10T14:59:26;6.97;;;1.70;;
14736;SDS011;7459;53.590;10.062;2023-06-10T15:01:52;8.60;;;2.22;;